Atlanta, MI

8:24 PM EDT on May 19, 2019 (GMT -0400)
Atlanta, MI | | Change Station

Elev 889 ft 45.00 °N, 84.05 °W | Updated 10 seconds ago

Overcast
Overcast
48.7 °F
Feels Like 49 °F
N
0
Wind Variable Wind from East
Gusts 0.0 mph

Today
High -- | Low -- °F
--% Chance of Precip.
Yesterday
High -- | Low -- °F
Precip. -- in
Pressure 29.55 in
Visibility 3.0 miles
Clouds Mostly Cloudy 200 ft
Overcast 600 ft
Windchill 49 °F
Dew Point 48 °F
Humidity 97%
Rainfall 0.43 in
Snow Depth Not available.
6:03 AM 9:03 PM
Full, 98% visible
SPECI KGLR 200003Z AUTO 08004KT 3SM BR BKN002 OVC006 09/09 A2955 RMK AO2 T00890089
Pressure 29.55 in
Visibility 3.0 miles
Clouds Mostly Cloudy 200 ft
Overcast 600 ft
Windchill 49 °F
Dew Point 48 °F
Humidity 97%
Rainfall 0.43 in
Snow Depth Not available.
6:03 AM 9:03 PM
Full, 98% visible
SPECI KGLR 200003Z AUTO 08004KT 3SM BR BKN002 OVC006 09/09 A2955 RMK AO2 T00890089

Get Severe Weather Alerts

Thanks for signing up!

Be on the lookout for a verification email in your inbox.

You'll start receiving the daily forecast at 6 AM.

×

10-Day Weather Forecast

Almanac

Astronomy

May. 19, 2019 Rise Set
Actual Time
Civil Twilight
Nautical Twilight
Astronomical Twilight
Moon
Length of Visible Light
Length of Day
Tomorrow will be .
, % of the Moon is Illuminated

Today's Extremes

State Highs State Lows

Community

WunderPhotos

Category 6

Welcome to Category 6. This is the collective home for Weather Underground's featured writeups by Dr. Jeff Masters (right), Bob Henson (left), Chris Burt, and other regular contributors.

Nearby

Air Quality

  Air Quality AQ Index Pollutant
Not available.

Snow Depth

Station Depth Elevation

Earthquake Activity

City Distance Mag. Time & Date
Minimum magnitude displayed is 2.5.

Coastal Water Temperatures

Place Temperature

Stations

Nearby Weather Stations

Station Location Temp. Windchill Dew Point Humidity Wind Precip. Elev Updated Type
                   

Watches & Warnings

There are currently no watches in effect.